15°C
Woerden, The Nederlands
Taal:  Nederlands
Updated11/05/2021 10:10 
 

Nearby METAR Reports

EHAM - Amsterdam/Schiph, Netherlands
Distance from station: N 27km
Updated: 11/05/2021 09:55
Helder
Helder
 Wind van NO
Wind: NO 15 km/h
Temperatuur: 15°C
Dauwpunt: 11°C
Vochtigheid: 77%
Barometer: 1008 hPa
Overzicht: Helder
Visibility: greater than 10 km
2021/05/11 07:55 EHAM 110755Z 04008KT 010V070 CAVOK 15/11 Q1008 NOSIG
EHRD - Rotterdam Airpor, Netherlands
Distance from station: WZW 30km
Updated: 11/05/2021 09:55
Gedeeltelijk bewolkt
Gedeeltelijk bewolkt
 Wind van NNO
Wind: NNO 9 km/h
Temperatuur: 16°C
Dauwpunt: 11°C
Vochtigheid: 72%
Barometer: 1008 hPa
Clouds: Gedeeltelijk bewolkt
Visibility: 10 km
2021/05/11 07:55 EHRD 110755Z AUTO 02005KT 330V060 9999 NSC 16/11 Q1008 NOSIG
 
EHGR - Gilze-Rijen Rnla, Netherlands
Distance from station: Z 57km
Updated: 11/05/2021 09:55
Zwaar bewolkt
Zwaar bewolkt
 Wind van varies
Wind: varies 7 km/h
Temperatuur: 15°C
Dauwpunt: 10°C
Vochtigheid: 72%
Barometer: 1008 hPa
Clouds: Zwaar bewolkt
Visibility: 10 km
Cloud details: Gedeeltelijk bewolkt 2774 m
Meestal bewolkt 2957 m
Zwaar bewolkt 3048 m
2021/05/11 07:55 EHGR 110755Z AUTO VRB04KT 9999 SCT091 BKN097 OVC100 15/10 Q1008 BLU NOSIG
EHDL - Deelen Rnlafb, Netherlands
Distance from station: O 71km
Updated: 11/05/2021 09:56
Zwaar bewolkt
Zwaar bewolkt
 Wind van varies
Wind: varies 2 km/h
Temperatuur: 16°C
Dauwpunt: 11°C
Vochtigheid: 72%
Barometer: 1008 hPa
Clouds: Zwaar bewolkt
Visibility: 10 km
Cloud details: Zwaar bewolkt 2560 m
2021/05/11 07:56 EHDL 110756Z AUTO VRB01KT 9999 OVC084 16/11 Q1008 BLU
 
EHVK - Volkel Rnlafb, Netherlands
Distance from station: ZO 77km
Updated: 11/05/2021 09:55
Zwaar bewolkt
Zwaar bewolkt
 Wind van ZW
Wind: ZW 9 km/h
Temperatuur: 16°C
Dauwpunt: 11°C
Vochtigheid: 72%
Barometer: 1007 hPa
Clouds: Zwaar bewolkt
Visibility: 10 km
Cloud details: Meestal bewolkt 2591 m
Meestal bewolkt 2743 m
Zwaar bewolkt 3018 m
2021/05/11 07:55 EHVK 110755Z AUTO 23005KT 200V290 9999 BKN085 BKN090 OVC099 16/11 Q1007 BLU NOSIG
EHWO - Woensdrecht Rnla, Netherlands
Distance from station: ZZW 78km
Updated: 11/05/2021 09:55
Zwaar bewolkt
Zwaar bewolkt
 Wind van WNW
Wind: WNW 6 km/h
Temperatuur: 16°C
Dauwpunt: 9°C
Vochtigheid: 63%
Barometer: 1008 hPa
Clouds: Zwaar bewolkt
Visibility: 10 km
Cloud details: Zwaar bewolkt 3658 m
2021/05/11 07:55 EHWO 110755Z AUTO 29003KT 190V320 9999 OVC120 16/09 Q1008 BLU TEMPO VRB04KT
 
EHEH - Eindhoven Rnlafb, Netherlands
Distance from station: ZZO 81km
Updated: 11/05/2021 09:55
Zwaar bewolkt
Zwaar bewolkt
 Wind van ZZW
Wind: ZZW 9 km/h
Temperatuur: 16°C
Dauwpunt: 10°C
Vochtigheid: 68%
Barometer: 1008 hPa
Clouds: Zwaar bewolkt
Visibility: 10 km
Cloud details: Few Clouds 2591 m
Zwaar bewolkt 2957 m
2021/05/11 07:55 EHEH 110755Z AUTO 21005KT 140V260 9999 FEW085 OVC097 16/10 Q1008 BLU NOSIG
EHSC - Goeree Le Sea, Netherlands
Distance from station: W 81km
Updated: 11/05/2021 09:55

 Wind van NO
Wind: NO 17 km/h
Temperatuur: 11°C
Dauwpunt: 8°C
Vochtigheid: 82%
Barometer: 1008 hPa
Visibility: 10 km
2021/05/11 07:55 EHSC 110755Z AUTO 04009KT 9999 ///////// 11/08 Q1008 W10/H3